Travelers Rest, SC (29690)

9:23 AM EST on February 11, 2016 (GMT -0500)
APRSWXNET | | Change Station
CLOSE
Current Station
Personal Weather Station
Location: Travelers Rest, SC
Elevation: 1049 ft
Nearby Weather Stations

Elev 1049 ft 35.00 °N, 82.43 °W | Updated 35 minutes ago

Clear
Clear
23 °F
Feels Like 23 °F
N
0
Wind Variable Wind from NE
Gusts 2.0 mph

Today
High -- | Low -- °F
--% Chance of Precip.
Yesterday
High -- | Low -- °F
Precip. -- in
Pressure 30.21 in
Visibility 10.0 miles
Clouds Clear
Windchill 23 °F
Dew Point 16 °F
Humidity 75%
Rainfall in
Snow Depth Not available.
7:20 AM 6:08 PM
Waxing Crescent, 12% visible
METAR KGMU 111353Z 17003KT 10SM CLR M02/M09 A3017 RMK AO2 SLP228 T10171094
Pressure 30.21 in
Visibility 10.0 miles
Clouds Clear
Windchill 23 °F
Dew Point 16 °F
Humidity 75%
Rainfall in
Snow Depth Not available.
7:20 AM 6:08 PM
Waxing Crescent, 12% visible
METAR KGMU 111353Z 17003KT 10SM CLR M02/M09 A3017 RMK AO2 SLP228 T10171094

10-Day Weather Forecast

Almanac

Astronomy

Feb. 11, 2016 Rise Set
Actual Time
Civil Twilight
Nautical Twilight
Astronomical Twilight
Moon
Length of Visible Light
Length of Day
Tomorrow will be .
, % of the Moon is Illuminated

Today's Extremes

State Highs State Lows

Community

WunderPhotos

Upload Photos

1,892,048 photos uploaded!

WunderBlog® & News

Nearby

Air Quality

  Air Quality AQ Index Pollutant
Not available.

Snow Depth

Station Depth Elevation

Earthquake Activity

City Distance Mag. Time & Date
Minimum magnitude displayed is 2.5.

Coastal Water Temperatures

Place Temperature

Stations

Nearby Weather Stations

Station Location Temp. Windchill Dew Point Humidity Wind Precip. Elev Updated Type
                   

Watches & Warnings

There are currently no watches in effect.